Time;durP1;ratioP1;P1;durP2;ratioP2;P2;SDS_P1;SDS_P2;PMS_P1;PMS_P2;Temp;Humidity;BMP_temperature;BMP_pressure;BME280_temperature;BME280_humidity;BME280_pressure;Samples;Min_cycle;Max_cycle;Signal;HPM_P1;HPM_P2
2022/08/15 00:00:55;;;;;;;9.00;7.18;;;;;;;;;;5054267;28;20045;-65
2022/08/15 00:03:32;;;;;;;11.13;6.85;;;;;;;;;;5056621;28;20016;-66
2022/08/15 00:05:58;;;;;;;11.23;7.50;;;;;;;;;;5061675;28;20523;-65
2022/08/15 00:08:25;;;;;;;15.10;6.80;;;;;;;;;;5052674;28;20099;-65
2022/08/15 00:10:51;;;;;;;9.98;7.22;;;;;;;;;;5052917;28;20029;-65
2022/08/15 00:13:28;;;;;;;9.70;6.90;;;;;;;;;;5049764;28;20128;-65
2022/08/15 00:15:54;;;;;;;9.60;6.85;;;;;;;;;;5053245;28;20526;-65
2022/08/15 00:18:20;;;;;;;10.77;7.30;;;;;;;;;;5054269;28;20373;-65
2022/08/15 00:20:45;;;;;;;11.88;7.38;;;;;;;;;;5068136;28;20103;-65
2022/08/15 00:23:13;;;;;;;9.80;7.30;;;;;;;;;;5066881;28;20119;-65
2022/08/15 00:25:39;;;;;;;9.70;7.05;;;;;;;;;;5062100;28;20162;-65
2022/08/15 00:28:05;;;;;;;11.90;6.97;;;;;;;;;;5061292;28;20508;-65
2022/08/15 00:30:31;;;;;;;10.98;7.55;;;;;;;;;;5057762;28;20049;-65
2022/08/15 00:32:57;;;;;;;10.10;7.88;;;;;;;;;;5053043;28;20033;-65
2022/08/15 00:35:39;;;;;;;10.57;7.68;;;;;;;;;;5070191;28;20101;-65
2022/08/15 00:38:06;;;;;;;10.52;7.10;;;;;;;;;;5063190;28;20024;-65
2022/08/15 00:41:39;;;;;;;11.95;7.50;;;;;;;;;;5068957;28;20024;-65
2022/08/15 00:43:18;;;;;;;10.93;7.35;;;;;;;;;;5050298;28;20033;-65
2022/08/15 00:45:43;;;;;;;10.75;7.50;;;;;;;;;;5052153;28;20028;-65
2022/08/15 00:50:52;;;;;;;11.45;7.75;;;;;;;;;;5054382;28;20035;-65
2022/08/15 00:53:19;;;;;;;12.07;8.00;;;;;;;;;;5050780;28;20485;-64
2022/08/15 00:55:44;;;;;;;13.68;7.88;;;;;;;;;;5048746;28;20025;-65
2022/08/15 00:58:09;;;;;;;10.95;7.68;;;;;;;;;;5049579;28;20019;-65
2022/08/15 01:00:40;;;;;;;12.15;7.65;;;;;;;;;;5050108;28;20543;-65
2022/08/15 01:03:12;;;;;;;12.93;8.05;;;;;;;;;;5050827;28;20040;-65
2022/08/15 01:05:37;;;;;;;17.40;8.70;;;;;;;;;;5054282;28;20032;-65
2022/08/15 01:08:02;;;;;;;12.23;9.30;;;;;;;;;;5062560;28;20021;-65
2022/08/15 01:10:28;;;;;;;14.43;8.90;;;;;;;;;;5072063;28;20103;-65
2022/08/15 01:12:53;;;;;;;15.13;8.63;;;;;;;;;;5056784;28;20068;-65
2022/08/15 01:15:19;;;;;;;11.95;8.38;;;;;;;;;;5063020;28;20480;-65
2022/08/15 01:17:44;;;;;;;13.45;8.30;;;;;;;;;;5052316;28;20017;-65
2022/08/15 01:20:13;;;;;;;13.73;8.50;;;;;;;;;;5059950;28;20039;-65
2022/08/15 01:22:47;;;;;;;12.70;8.70;;;;;;;;;;5062401;28;20107;-65
2022/08/15 01:25:27;;;;;;;11.63;8.02;;;;;;;;;;5068895;28;20385;-65
2022/08/15 01:28:05;;;;;;;9.98;8.30;;;;;;;;;;5056819;28;20032;-65
2022/08/15 01:30:32;;;;;;;11.65;8.43;;;;;;;;;;5065006;28;20138;-65
2022/08/15 01:32:58;;;;;;;11.45;8.50;;;;;;;;;;5060391;28;20115;-65
2022/08/15 01:35:24;;;;;;;12.20;8.43;;;;;;;;;;5063786;28;20089;-65
2022/08/15 01:37:50;;;;;;;13.40;8.65;;;;;;;;;;5062269;28;20024;-65
2022/08/15 01:40:26;;;;;;;13.20;8.68;;;;;;;;;;5057936;28;20416;-65
2022/08/15 01:42:53;;;;;;;11.70;8.65;;;;;;;;;;5060791;28;21064;-65
2022/08/15 01:45:20;;;;;;;12.00;8.52;;;;;;;;;;5051888;28;20029;-65
2022/08/15 01:47:59;;;;;;;10.95;8.45;;;;;;;;;;5058326;28;20444;-65
2022/08/15 01:50:25;;;;;;;10.68;7.72;;;;;;;;;;5063487;28;20469;-65
2022/08/15 01:52:59;;;;;;;10.40;8.15;;;;;;;;;;5060373;28;20095;-65
2022/08/15 01:55:45;;;;;;;14.93;7.13;;;;;;;;;;5056214;28;20066;-65
2022/08/15 01:58:10;;;;;;;11.77;6.45;;;;;;;;;;5061311;28;20119;-65
2022/08/15 02:00:37;;;;;;;13.48;6.85;;;;;;;;;;5059765;28;20123;-66
2022/08/15 02:03:02;;;;;;;10.88;7.07;;;;;;;;;;5055151;28;20116;-66
2022/08/15 02:05:27;;;;;;;9.60;6.93;;;;;;;;;;5056308;28;20219;-65
2022/08/15 02:07:53;;;;;;;10.30;5.90;;;;;;;;;;5063415;28;20039;-65
2022/08/15 02:10:18;;;;;;;10.10;6.20;;;;;;;;;;5072091;28;20105;-65
2022/08/15 02:12:43;;;;;;;9.10;6.20;;;;;;;;;;5062189;28;20028;-65
2022/08/15 02:15:13;;;;;;;10.60;6.70;;;;;;;;;;5062369;28;20517;-65
2022/08/15 02:17:39;;;;;;;9.43;6.93;;;;;;;;;;5055034;28;20480;-65
2022/08/15 02:20:04;;;;;;;8.95;6.47;;;;;;;;;;5060183;28;20107;-65
2022/08/15 02:22:30;;;;;;;10.50;6.57;;;;;;;;;;5058597;28;22076;-65
2022/08/15 02:24:55;;;;;;;12.88;7.00;;;;;;;;;;5068553;28;20032;-66
2022/08/15 02:27:21;;;;;;;8.98;7.25;;;;;;;;;;5061777;28;20017;-65
2022/08/15 02:29:46;;;;;;;9.70;7.18;;;;;;;;;;5071611;28;20025;-66
2022/08/15 02:32:14;;;;;;;12.55;7.57;;;;;;;;;;5059927;28;20522;-66
2022/08/15 02:34:40;;;;;;;12.25;8.20;;;;;;;;;;5058898;28;20597;-66
2022/08/15 02:37:06;;;;;;;10.73;8.43;;;;;;;;;;5054411;28;20031;-65
2022/08/15 02:39:31;;;;;;;14.88;8.10;;;;;;;;;;5055179;28;20650;-65
2022/08/15 02:41:57;;;;;;;12.45;8.45;;;;;;;;;;5058523;28;20025;-65
2022/08/15 02:44:22;;;;;;;12.02;9.40;;;;;;;;;;5058843;28;20013;-65
2022/08/15 02:46:49;;;;;;;11.05;8.25;;;;;;;;;;5059326;28;20016;-65
2022/08/15 02:49:15;;;;;;;11.65;9.02;;;;;;;;;;5055713;28;20082;-65
2022/08/15 02:51:41;;;;;;;12.40;8.38;;;;;;;;;;5063116;28;20489;-65
2022/08/15 02:54:09;;;;;;;10.32;8.65;;;;;;;;;;5057571;28;20389;-65
2022/08/15 02:56:34;;;;;;;10.82;9.05;;;;;;;;;;5057046;28;20025;-66
2022/08/15 02:59:00;;;;;;;12.32;8.68;;;;;;;;;;5048819;28;20029;-65
2022/08/15 03:01:26;;;;;;;12.55;7.95;;;;;;;;;;5065741;28;20142;-65
2022/08/15 03:03:53;;;;;;;12.65;7.88;;;;;;;;;;5061167;28;20020;-65
2022/08/15 03:06:22;;;;;;;9.77;7.47;;;;;;;;;;5059873;28;20107;-65
2022/08/15 03:08:47;;;;;;;10.00;7.57;;;;;;;;;;5059902;28;20122;-65
2022/08/15 03:11:13;;;;;;;13.48;7.45;;;;;;;;;;5069261;28;20020;-65
2022/08/15 03:13:40;;;;;;;11.15;8.65;;;;;;;;;;5051658;28;20024;-65
2022/08/15 03:16:05;;;;;;;11.85;8.43;;;;;;;;;;5063822;28;20162;-65
2022/08/15 03:18:33;;;;;;;12.30;8.70;;;;;;;;;;5065638;28;20198;-65
2022/08/15 03:21:04;;;;;;;13.23;7.97;;;;;;;;;;5063033;28;20020;-65
2022/08/15 03:23:32;;;;;;;11.30;8.23;;;;;;;;;;5057587;28;20116;-65
2022/08/15 03:25:59;;;;;;;10.10;7.68;;;;;;;;;;5062509;28;20029;-66
2022/08/15 03:28:26;;;;;;;14.68;7.80;;;;;;;;;;5059527;28;20107;-66
2022/08/15 03:30:52;;;;;;;10.85;8.68;;;;;;;;;;5067273;28;20469;-65
2022/08/15 03:33:17;;;;;;;12.23;8.93;;;;;;;;;;5056873;28;20021;-66
2022/08/15 03:35:47;;;;;;;11.98;9.30;;;;;;;;;;5054157;28;20031;-65
2022/08/15 03:38:13;;;;;;;13.80;9.90;;;;;;;;;;5062906;28;20052;-65
2022/08/15 03:40:40;;;;;;;12.40;8.98;;;;;;;;;;5051839;28;20281;-66
2022/08/15 03:43:07;;;;;;;12.02;9.70;;;;;;;;;;5061855;28;20040;-65
2022/08/15 03:45:32;;;;;;;15.02;9.95;;;;;;;;;;5061411;28;20067;-65
2022/08/15 03:47:57;;;;;;;14.15;10.20;;;;;;;;;;5061891;28;20028;-65
2022/08/15 03:50:22;;;;;;;14.32;9.80;;;;;;;;;;5060827;28;20488;-65
2022/08/15 03:52:48;;;;;;;14.02;9.70;;;;;;;;;;5057872;28;20378;-65
2022/08/15 03:55:14;;;;;;;16.77;9.98;;;;;;;;;;5064331;28;20669;-65
2022/08/15 03:57:39;;;;;;;14.23;9.77;;;;;;;;;;5056287;28;20458;-65
2022/08/15 04:00:07;;;;;;;15.23;10.35;;;;;;;;;;5070655;28;20036;-65
2022/08/15 04:02:32;;;;;;;12.02;9.82;;;;;;;;;;5056543;28;20025;-66
2022/08/15 04:04:57;;;;;;;12.88;10.07;;;;;;;;;;5059985;28;20066;-66
2022/08/15 04:07:23;;;;;;;12.93;10.32;;;;;;;;;;5058127;28;20060;-66
2022/08/15 04:09:48;;;;;;;16.80;10.38;;;;;;;;;;5061626;28;20028;-66
2022/08/15 04:12:27;;;;;;;13.60;10.55;;;;;;;;;;5061916;28;20035;-65
2022/08/15 04:14:53;;;;;;;13.00;10.15;;;;;;;;;;5069603;28;20036;-65
2022/08/15 04:17:19;;;;;;;14.55;10.13;;;;;;;;;;5056204;28;20025;-65
2022/08/15 04:19:45;;;;;;;14.02;10.20;;;;;;;;;;5062054;28;20028;-66
2022/08/15 04:22:10;;;;;;;14.85;10.43;;;;;;;;;;5054471;28;21840;-66
2022/08/15 04:24:35;;;;;;;12.05;9.95;;;;;;;;;;5063860;28;20110;-66
2022/08/15 04:27:01;;;;;;;13.38;10.13;;;;;;;;;;5057583;28;20713;-66
2022/08/15 04:29:26;;;;;;;13.57;10.40;;;;;;;;;;5054464;28;20036;-65
2022/08/15 04:31:54;;;;;;;14.95;10.57;;;;;;;;;;5054999;28;20029;-65
2022/08/15 04:34:19;;;;;;;13.35;9.80;;;;;;;;;;5057798;28;20060;-66
2022/08/15 04:36:46;;;;;;;14.13;9.75;;;;;;;;;;5056923;28;20110;-66
2022/08/15 04:39:12;;;;;;;14.07;9.90;;;;;;;;;;5058948;28;20017;-66
2022/08/15 04:41:37;;;;;;;12.65;9.75;;;;;;;;;;5060491;28;20029;-66
2022/08/15 04:44:04;;;;;;;13.50;10.13;;;;;;;;;;5055737;28;20068;-66
2022/08/15 04:46:29;;;;;;;13.73;10.35;;;;;;;;;;5056671;28;20031;-66
2022/08/15 04:48:56;;;;;;;13.57;10.43;;;;;;;;;;5060449;28;20028;-66
2022/08/15 04:51:21;;;;;;;26.08;14.15;;;;;;;;;;5068856;28;20036;-66
2022/08/15 04:53:47;;;;;;;22.48;14.18;;;;;;;;;;5065855;28;20500;-66
2022/08/15 04:56:12;;;;;;;22.08;15.13;;;;;;;;;;5058671;28;20021;-66
2022/08/15 04:58:37;;;;;;;22.92;16.73;;;;;;;;;;5062012;28;20114;-65
2022/08/15 05:01:07;;;;;;;24.25;16.13;;;;;;;;;;5057508;28;20045;-65
2022/08/15 05:03:33;;;;;;;22.20;14.82;;;;;;;;;;5051660;28;20067;-65
2022/08/15 05:06:01;;;;;;;20.85;15.10;;;;;;;;;;5054377;28;20056;-65
2022/08/15 05:08:27;;;;;;;20.00;14.65;;;;;;;;;;5052360;28;20043;-65
2022/08/15 05:10:54;;;;;;;20.15;13.65;;;;;;;;;;5054965;28;20400;-65
2022/08/15 05:13:25;;;;;;;16.58;13.43;;;;;;;;;;5062052;28;20028;-65
2022/08/15 05:15:50;;;;;;;16.73;13.48;;;;;;;;;;5057936;28;20032;-65
2022/08/15 05:18:15;;;;;;;18.40;13.43;;;;;;;;;;5064961;28;20025;-65
2022/08/15 05:20:41;;;;;;;18.90;13.93;;;;;;;;;;5054319;28;20025;-65
2022/08/15 05:23:11;;;;;;;19.15;12.98;;;;;;;;;;5055370;28;20067;-65
2022/08/15 05:25:39;;;;;;;15.48;12.95;;;;;;;;;;5058294;28;20435;-66
2022/08/15 05:28:05;;;;;;;14.63;11.57;;;;;;;;;;5068322;28;20047;-65
2022/08/15 05:30:31;;;;;;;17.13;12.20;;;;;;;;;;5063884;28;20017;-65
2022/08/15 05:33:02;;;;;;;15.02;12.60;;;;;;;;;;5064959;28;20404;-65
2022/08/15 05:35:29;;;;;;;14.25;12.15;;;;;;;;;;5058941;28;20024;-66
2022/08/15 05:37:56;;;;;;;14.45;11.80;;;;;;;;;;5060305;28;20032;-65
2022/08/15 05:40:22;;;;;;;15.48;11.50;;;;;;;;;;5065152;28;20017;-65
2022/08/15 05:43:13;;;;;;;14.40;11.30;;;;;;;;;;5061341;28;20024;-66
2022/08/15 05:45:43;;;;;;;13.25;10.23;;;;;;;;;;5056482;28;20377;-66
2022/08/15 05:48:08;;;;;;;16.15;11.85;;;;;;;;;;5051744;28;20067;-65
2022/08/15 05:50:43;;;;;;;16.65;11.35;;;;;;;;;;5053822;28;20053;-66
2022/08/15 05:53:17;;;;;;;15.20;11.13;;;;;;;;;;5054719;28;20089;-66
2022/08/15 05:56:00;;;;;;;17.98;11.65;;;;;;;;;;5056945;28;20060;-65
2022/08/15 05:58:28;;;;;;;14.93;11.38;;;;;;;;;;5052118;28;20594;-65
2022/08/15 06:01:12;;;;;;;14.55;10.63;;;;;;;;;;5065401;28;20119;-65
2022/08/15 06:03:40;;;;;;;11.82;10.10;;;;;;;;;;5060390;28;20035;-65
2022/08/15 06:06:08;;;;;;;14.15;10.35;;;;;;;;;;5068018;28;20474;-65
2022/08/15 06:08:35;;;;;;;15.93;10.40;;;;;;;;;;5065738;28;20112;-65
2022/08/15 06:11:03;;;;;;;13.98;10.52;;;;;;;;;;5072011;28;20032;-66
2022/08/15 06:13:30;;;;;;;16.27;10.50;;;;;;;;;;5071607;28;20020;-65
2022/08/15 06:15:58;;;;;;;16.15;11.30;;;;;;;;;;5070926;28;20146;-65
2022/08/15 06:18:23;;;;;;;25.15;11.77;;;;;;;;;;5071720;28;20021;-65
2022/08/15 06:20:58;;;;;;;12.18;10.13;;;;;;;;;;5071806;28;20036;-65
2022/08/15 06:23:23;;;;;;;14.63;10.57;;;;;;;;;;5071795;28;20039;-65
2022/08/15 06:25:48;;;;;;;14.88;9.98;;;;;;;;;;5071710;28;20477;-66
2022/08/15 06:28:22;;;;;;;14.27;10.07;;;;;;;;;;5071822;28;20020;-66
2022/08/15 06:31:10;;;;;;;15.57;9.98;;;;;;;;;;5071734;28;20032;-65
2022/08/15 06:33:50;;;;;;;13.68;10.05;;;;;;;;;;5071649;28;20423;-65
2022/08/15 06:36:19;;;;;;;14.32;11.07;;;;;;;;;;5071630;28;20025;-65
2022/08/15 06:38:48;;;;;;;18.02;10.15;;;;;;;;;;5071697;28;20035;-66
2022/08/15 06:41:13;;;;;;;14.73;10.20;;;;;;;;;;5071214;28;20016;-66
2022/08/15 06:43:38;;;;;;;14.50;9.98;;;;;;;;;;5071443;28;20032;-66
2022/08/15 06:46:05;;;;;;;13.93;10.70;;;;;;;;;;5071339;28;20491;-66
2022/08/15 06:48:32;;;;;;;13.45;10.18;;;;;;;;;;5067592;28;20233;-66
2022/08/15 06:51:00;;;;;;;13.20;9.32;;;;;;;;;;5071138;28;20025;-66
2022/08/15 06:53:44;;;;;;;12.40;9.32;;;;;;;;;;5070851;28;20504;-66
2022/08/15 06:56:32;;;;;;;14.10;9.63;;;;;;;;;;5071214;28;20021;-66
2022/08/15 06:59:11;;;;;;;13.65;9.80;;;;;;;;;;5060586;28;20384;-66
2022/08/15 07:01:52;;;;;;;17.70;10.40;;;;;;;;;;5071130;28;20396;-66
2022/08/15 07:04:24;;;;;;;14.63;10.77;;;;;;;;;;5069759;28;20094;-66
2022/08/15 07:06:49;;;;;;;;;;;;;;;;;;5071560;28;20020;-66
2022/08/15 07:09:33;;;;;;;12.90;9.95;;;;;;;;;;5071203;28;19911;-66
2022/08/15 07:12:18;;;;;;;12.13;10.60;;;;;;;;;;5071120;28;20032;-65
2022/08/15 07:14:52;;;;;;;15.18;9.57;;;;;;;;;;5070441;28;20032;-65
2022/08/15 07:17:22;;;;;;;12.00;10.25;;;;;;;;;;5071358;28;20023;-65
2022/08/15 07:19:47;;;;;;;14.77;10.10;;;;;;;;;;5070904;28;20096;-66
2022/08/15 07:22:13;;;;;;;14.20;10.07;;;;;;;;;;5071246;28;20097;-66
2022/08/15 07:24:48;;;;;;;14.02;9.73;;;;;;;;;;5070795;28;20075;-65
2022/08/15 07:27:15;;;;;;;13.38;9.57;;;;;;;;;;5074531;28;20028;-66
2022/08/15 07:29:43;;;;;;;12.52;9.45;;;;;;;;;;5074812;28;20047;-66
2022/08/15 07:32:13;;;;;;;12.68;9.30;;;;;;;;;;5075022;28;20048;-66
2022/08/15 07:34:52;;;;;;;18.48;9.88;;;;;;;;;;5074819;28;20480;-65
2022/08/15 07:37:22;;;;;;;11.25;8.93;;;;;;;;;;5074800;28;20099;-66
2022/08/15 07:39:56;;;;;;;10.55;8.85;;;;;;;;;;5074636;28;20025;-66
2022/08/15 07:42:21;;;;;;;12.45;9.15;;;;;;;;;;5071399;28;20016;-66
2022/08/15 07:44:51;;;;;;;11.27;8.68;;;;;;;;;;5074700;28;20029;-65
2022/08/15 07:47:22;;;;;;;13.20;8.48;;;;;;;;;;5062534;28;20024;-65
2022/08/15 07:49:58;;;;;;;11.65;8.60;;;;;;;;;;5056806;28;20048;-66
2022/08/15 07:52:24;;;;;;;10.65;8.13;;;;;;;;;;5060078;28;20040;-65
2022/08/15 07:54:56;;;;;;;13.85;8.30;;;;;;;;;;5056403;28;20606;-66
2022/08/15 07:57:30;;;;;;;14.05;8.38;;;;;;;;;;5058183;28;20029;-66
2022/08/15 08:00:06;;;;;;;11.43;8.05;;;;;;;;;;5070251;28;20036;-66
2022/08/15 08:02:46;;;;;;;12.05;8.05;;;;;;;;;;5055188;28;20021;-65
2022/08/15 08:05:12;;;;;;;9.60;7.65;;;;;;;;;;5063761;28;20078;-65
2022/08/15 08:07:42;;;;;;;11.55;8.65;;;;;;;;;;5074450;28;20032;-66
2022/08/15 08:10:13;;;;;;;12.98;7.78;;;;;;;;;;5072378;28;20023;-66
2022/08/15 08:12:49;;;;;;;12.13;8.32;;;;;;;;;;5074016;28;20063;-66
2022/08/15 08:15:33;;;;;;;11.43;8.13;;;;;;;;;;5069993;28;20025;-66
2022/08/15 08:18:03;;;;;;;11.20;7.68;;;;;;;;;;5054389;28;20111;-66
2022/08/15 08:20:29;;;;;;;12.10;7.60;;;;;;;;;;5065952;28;20036;-66
2022/08/15 08:23:04;;;;;;;9.10;6.38;;;;;;;;;;5074159;28;20029;-66
2022/08/15 08:25:36;;;;;;;10.27;5.85;;;;;;;;;;5071948;28;20071;-66
2022/08/15 08:28:11;;;;;;;10.60;6.53;;;;;;;;;;5066559;28;20025;-65
2022/08/15 08:30:44;;;;;;;13.45;5.90;;;;;;;;;;5054157;28;20080;-65
2022/08/15 08:33:10;;;;;;;13.57;5.47;;;;;;;;;;5054007;28;20063;-65
2022/08/15 08:35:55;;;;;;;11.67;5.27;;;;;;;;;;5066738;28;20492;-66
2022/08/15 08:38:42;;;;;;;10.77;5.53;;;;;;;;;;5055476;28;20334;-65
2022/08/15 08:41:25;;;;;;;7.72;4.88;;;;;;;;;;5073094;28;20102;-65
2022/08/15 08:43:53;;;;;;;7.55;4.43;;;;;;;;;;5061742;28;20028;-63
2022/08/15 08:46:45;;;;;;;8.90;4.38;;;;;;;;;;5059018;28;20029;-63
2022/08/15 08:49:16;;;;;;;8.20;4.68;;;;;;;;;;5054762;28;20029;-63
2022/08/15 08:51:44;;;;;;;7.32;4.75;;;;;;;;;;5073248;28;20037;-63
2022/08/15 08:54:22;;;;;;;9.63;4.40;;;;;;;;;;5068162;28;20161;-63
2022/08/15 08:56:50;;;;;;;8.77;4.43;;;;;;;;;;5073286;28;20020;-63
2022/08/15 08:59:17;;;;;;;7.40;4.47;;;;;;;;;;5059302;28;20028;-63
2022/08/15 09:01:43;;;;;;;7.15;4.40;;;;;;;;;;5061178;28;20059;-63
2022/08/15 09:04:11;;;;;;;9.93;4.60;;;;;;;;;;5056878;28;20040;-64
2022/08/15 09:06:39;;;;;;;8.02;4.60;;;;;;;;;;5057315;28;20493;-63
2022/08/15 09:09:31;;;;;;;6.20;4.68;;;;;;;;;;5055508;28;20076;-64
2022/08/15 09:15:05;;;;;;;8.63;4.70;;;;;;;;;;5058122;28;20040;-64
2022/08/15 09:17:33;;;;;;;6.97;4.95;;;;;;;;;;5052759;28;20052;-64
2022/08/15 09:20:25;;;;;;;8.48;4.35;;;;;;;;;;5061739;28;20028;-66
2022/08/15 09:22:50;;;;;;;9.52;4.93;;;;;;;;;;5064303;28;20029;-66
2022/08/15 09:25:16;;;;;;;6.60;4.78;;;;;;;;;;5065563;28;20521;-66
2022/08/15 09:27:48;;;;;;;8.75;4.88;;;;;;;;;;5052809;28;20065;-66
2022/08/15 09:30:13;;;;;;;10.30;4.75;;;;;;;;;;5059999;28;20028;-66
2022/08/15 09:32:38;;;;;;;7.05;4.68;;;;;;;;;;5058643;28;20032;-67
2022/08/15 09:35:22;;;;;;;11.43;4.93;;;;;;;;;;5061313;28;20051;-66
2022/08/15 09:38:06;;;;;;;6.70;4.65;;;;;;;;;;5072665;28;20017;-67
2022/08/15 09:40:52;;;;;;;8.60;5.20;;;;;;;;;;5072474;28;20491;-67
2022/08/15 09:43:18;;;;;;;8.50;5.28;;;;;;;;;;5058407;28;20500;-66
2022/08/15 09:46:10;;;;;;;9.57;5.35;;;;;;;;;;5066473;28;20029;-66
2022/08/15 09:48:54;;;;;;;7.47;4.82;;;;;;;;;;5052617;28;20112;-66
2022/08/15 09:51:28;;;;;;;7.35;4.80;;;;;;;;;;5066684;28;20067;-66
2022/08/15 09:53:56;;;;;;;9.00;5.10;;;;;;;;;;5069182;28;20036;-66
2022/08/15 09:56:22;;;;;;;12.40;5.20;;;;;;;;;;5059016;28;20017;-66
2022/08/15 09:59:05;;;;;;;9.25;5.03;;;;;;;;;;5052492;28;20031;-67
2022/08/15 10:01:31;;;;;;;9.38;4.85;;;;;;;;;;5052141;28;20025;-66
2022/08/15 10:03:56;;;;;;;7.47;4.40;;;;;;;;;;5051455;28;20016;-66
2022/08/15 10:06:42;;;;;;;6.93;4.88;;;;;;;;;;5070982;28;20093;-65
2022/08/15 10:09:21;;;;;;;10.15;4.47;;;;;;;;;;5060391;28;20037;-66
2022/08/15 10:11:46;;;;;;;7.47;4.13;;;;;;;;;;5071852;28;20025;-66
2022/08/15 10:14:36;;;;;;;6.80;3.83;;;;;;;;;;5062824;28;20035;-66
2022/08/15 10:17:21;;;;;;;7.45;3.70;;;;;;;;;;5052066;28;20140;-66
2022/08/15 10:19:47;;;;;;;6.57;3.67;;;;;;;;;;5071889;28;20469;-66
2022/08/15 10:22:20;;;;;;;7.75;3.75;;;;;;;;;;5057041;28;20105;-66
2022/08/15 10:25:05;;;;;;;4.93;3.80;;;;;;;;;;5059020;28;20468;-63
2022/08/15 10:27:50;;;;;;;5.75;3.63;;;;;;;;;;5051427;28;20025;-63
2022/08/15 10:30:16;;;;;;;6.32;3.75;;;;;;;;;;5053107;28;20025;-63
2022/08/15 10:32:42;;;;;;;7.45;3.75;;;;;;;;;;5051642;28;20060;-63
2022/08/15 10:35:19;;;;;;;6.57;3.78;;;;;;;;;;5060199;28;20044;-63
2022/08/15 10:37:51;;;;;;;6.47;3.60;;;;;;;;;;5071636;28;20108;-63
2022/08/15 10:40:27;;;;;;;8.98;3.95;;;;;;;;;;5067979;28;20051;-63
2022/08/15 10:43:03;;;;;;;8.05;4.32;;;;;;;;;;5071293;28;20449;-63
2022/08/15 10:45:28;;;;;;;6.22;4.13;;;;;;;;;;5064570;28;20025;-63
2022/08/15 10:48:05;;;;;;;5.63;3.90;;;;;;;;;;5051746;28;20105;-64
2022/08/15 10:50:49;;;;;;;6.22;4.30;;;;;;;;;;5056957;28;20025;-63
2022/08/15 10:53:34;;;;;;;6.43;4.05;;;;;;;;;;5051249;28;20063;-63
2022/08/15 10:56:06;;;;;;;6.22;4.15;;;;;;;;;;5067406;28;20025;-64
2022/08/15 10:58:32;;;;;;;5.32;4.32;;;;;;;;;;5071222;28;20013;-63
2022/08/15 11:01:03;;;;;;;5.88;4.32;;;;;;;;;;5068546;28;20025;-63
2022/08/15 11:03:48;;;;;;;6.28;4.40;;;;;;;;;;5067956;28;20024;-64
2022/08/15 11:06:14;;;;;;;7.00;4.00;;;;;;;;;;5071339;28;20074;-63
2022/08/15 11:08:48;;;;;;;7.03;4.13;;;;;;;;;;5071513;28;20369;-64
2022/08/15 11:11:14;;;;;;;6.22;4.20;;;;;;;;;;5057675;28;20025;-63
2022/08/15 11:13:41;;;;;;;5.15;4.00;;;;;;;;;;5054475;28;20047;-63
2022/08/15 11:16:09;;;;;;;7.47;4.00;;;;;;;;;;5065029;28;20437;-63
2022/08/15 11:18:36;;;;;;;5.93;4.50;;;;;;;;;;5051349;28;20131;-64
2022/08/15 11:21:13;;;;;;;6.45;4.50;;;;;;;;;;5052544;28;20112;-63
2022/08/15 11:23:39;;;;;;;9.60;4.93;;;;;;;;;;5050905;28;20460;-63
2022/08/15 11:26:06;;;;;;;9.05;4.80;;;;;;;;;;5062117;28;20100;-63
2022/08/15 11:28:33;;;;;;;8.65;4.85;;;;;;;;;;5051223;28;20078;-63
2022/08/15 11:30:58;;;;;;;7.22;5.10;;;;;;;;;;5069773;28;20434;-63
2022/08/15 11:33:26;;;;;;;8.80;5.07;;;;;;;;;;5070806;28;20255;-64
2022/08/15 11:36:05;;;;;;;11.88;4.95;;;;;;;;;;5070721;28;20029;-63
2022/08/15 11:38:31;;;;;;;6.55;4.88;;;;;;;;;;5070647;28;20028;-64
2022/08/15 11:40:59;;;;;;;9.07;4.97;;;;;;;;;;5067982;28;20020;-64
2022/08/15 11:43:25;;;;;;;6.40;4.60;;;;;;;;;;5071104;28;20107;-64
2022/08/15 11:45:51;;;;;;;7.07;4.72;;;;;;;;;;5067370;28;20503;-65
2022/08/15 11:48:22;;;;;;;7.05;4.78;;;;;;;;;;5061646;28;20074;-64
2022/08/15 11:51:01;;;;;;;8.40;4.60;;;;;;;;;;5064898;28;20044;-64
2022/08/15 11:53:28;;;;;;;7.38;4.45;;;;;;;;;;5065292;28;20120;-64
2022/08/15 11:55:53;;;;;;;6.55;4.35;;;;;;;;;;5062648;28;20472;-64
2022/08/15 11:58:21;;;;;;;5.70;4.05;;;;;;;;;;5070839;28;20073;-64
2022/08/15 12:00:48;;;;;;;8.68;4.80;;;;;;;;;;5060155;28;20436;-64
2022/08/15 12:03:22;;;;;;;7.07;4.47;;;;;;;;;;5050887;28;20034;-63
2022/08/15 12:05:49;;;;;;;9.10;4.72;;;;;;;;;;5063763;28;20067;-63
2022/08/15 12:08:20;;;;;;;9.00;4.10;;;;;;;;;;5050949;28;20358;-64
2022/08/15 12:10:46;;;;;;;8.32;4.05;;;;;;;;;;5067040;28;20036;-64
2022/08/15 12:13:15;;;;;;;6.20;4.10;;;;;;;;;;5070881;28;20457;-64
2022/08/15 12:15:41;;;;;;;5.43;4.40;;;;;;;;;;5062174;28;20017;-64
2022/08/15 12:18:32;;;;;;;6.22;4.05;;;;;;;;;;5054486;28;20017;-64
2022/08/15 12:21:03;;;;;;;6.55;4.03;;;;;;;;;;5064950;28;20048;-64
2022/08/15 12:23:28;;;;;;;5.43;3.80;;;;;;;;;;5063254;28;20020;-64
2022/08/15 12:26:01;;;;;;;6.30;3.60;;;;;;;;;;5068421;28;20036;-64
2022/08/15 12:28:27;;;;;;;5.63;3.85;;;;;;;;;;5057488;28;20037;-64
2022/08/15 12:30:57;;;;;;;5.80;3.75;;;;;;;;;;5064616;28;20099;-64
2022/08/15 12:33:23;;;;;;;12.57;4.18;;;;;;;;;;5073962;28;20033;-64
2022/08/15 12:35:48;;;;;;;7.03;4.18;;;;;;;;;;5073738;28;20377;-64
2022/08/15 12:38:15;;;;;;;15.18;5.00;;;;;;;;;;5054583;28;20048;-64
2022/08/15 12:40:40;;;;;;;11.00;3.50;;;;;;;;;;5067464;28;20047;-64
2022/08/15 12:43:06;;;;;;;9.98;3.50;;;;;;;;;;5073717;28;20040;-64
2022/08/15 12:45:31;;;;;;;10.52;3.47;;;;;;;;;;5066577;28;20233;-63
2022/08/15 12:47:56;;;;;;;7.50;3.20;;;;;;;;;;5053862;28;20499;-64
2022/08/15 12:50:22;;;;;;;6.88;3.55;;;;;;;;;;5075539;28;20026;-64
2022/08/15 12:52:48;;;;;;;9.65;3.88;;;;;;;;;;5093761;28;20028;-64
2022/08/15 12:55:13;;;;;;;7.70;3.65;;;;;;;;;;5082205;28;20036;-64
2022/08/15 12:57:38;;;;;;;7.50;3.58;;;;;;;;;;5073516;28;20437;-64
2022/08/15 13:00:05;;;;;;;7.40;4.18;;;;;;;;;;5073948;28;20040;-64
2022/08/15 13:02:30;;;;;;;7.07;3.55;;;;;;;;;;5054253;28;20373;-64
2022/08/15 13:04:56;;;;;;;9.50;4.18;;;;;;;;;;5059104;28;20058;-64
2022/08/15 13:07:22;;;;;;;9.43;3.50;;;;;;;;;;5073595;28;20116;-64
2022/08/15 13:09:48;;;;;;;4.70;3.28;;;;;;;;;;5071445;28;20439;-64
2022/08/15 13:12:14;;;;;;;5.75;2.95;;;;;;;;;;5073774;28;20029;-64
2022/08/15 13:14:40;;;;;;;6.00;3.33;;;;;;;;;;5072350;28;20025;-64
2022/08/15 13:17:06;;;;;;;6.93;3.13;;;;;;;;;;5054917;28;20017;-64
2022/08/15 13:23:34;;;;;;;5.88;3.35;;;;;;;;;;5057053;28;20108;-64
2022/08/15 13:25:03;;;;;;;6.13;3.03;;;;;;;;;;5069659;28;20063;-64
2022/08/15 13:27:32;;;;;;;6.22;3.10;;;;;;;;;;5053135;28;20025;-64
2022/08/15 13:29:59;;;;;;;5.65;2.80;;;;;;;;;;5054802;28;20078;-64
2022/08/15 13:32:24;;;;;;;5.72;2.67;;;;;;;;;;5053078;28;20032;-64
2022/08/15 13:34:49;;;;;;;6.18;2.63;;;;;;;;;;5059360;28;20516;-64
2022/08/15 13:37:14;;;;;;;7.57;2.92;;;;;;;;;;5072678;28;20397;-64
2022/08/15 13:39:40;;;;;;;7.45;2.97;;;;;;;;;;5069794;28;20057;-64
2022/08/15 13:42:05;;;;;;;5.18;2.45;;;;;;;;;;5053054;28;20376;-64
2022/08/15 13:44:31;;;;;;;4.88;2.50;;;;;;;;;;5063903;28;20554;-64
2022/08/15 13:46:57;;;;;;;7.63;2.60;;;;;;;;;;5054263;28;20587;-64
2022/08/15 13:49:23;;;;;;;5.32;2.40;;;;;;;;;;5055188;28;20090;-64
2022/08/15 13:51:50;;;;;;;7.75;2.72;;;;;;;;;;5071551;28;20032;-64
2022/08/15 13:54:16;;;;;;;3.42;2.30;;;;;;;;;;5074411;28;20031;-64
2022/08/15 13:56:41;;;;;;;3.95;2.05;;;;;;;;;;5080349;28;20481;-64
2022/08/15 13:59:07;;;;;;;3.40;1.88;;;;;;;;;;5074063;28;20099;-65
2022/08/15 14:01:33;;;;;;;3.25;2.10;;;;;;;;;;5056616;28;20021;-66
2022/08/15 14:04:06;;;;;;;4.53;2.20;;;;;;;;;;5053981;28;20483;-65
2022/08/15 14:06:33;;;;;;;5.30;2.00;;;;;;;;;;5053179;28;20020;-66
2022/08/15 14:09:00;;;;;;;4.68;2.30;;;;;;;;;;5054216;28;20378;-66
2022/08/15 14:11:25;;;;;;;5.30;2.40;;;;;;;;;;5070589;28;20020;-65
2022/08/15 14:13:50;;;;;;;4.35;2.40;;;;;;;;;;5072282;28;20400;-65
2022/08/15 14:16:20;;;;;;;4.80;2.30;;;;;;;;;;5061155;28;20017;-65
2022/08/15 14:18:45;;;;;;;5.85;2.33;;;;;;;;;;5054178;28;20066;-65
2022/08/15 14:21:12;;;;;;;4.45;1.98;;;;;;;;;;5068522;28;20024;-65
2022/08/15 14:23:38;;;;;;;4.40;1.83;;;;;;;;;;5074506;28;20112;-65
2022/08/15 14:26:05;;;;;;;3.90;1.90;;;;;;;;;;5075046;28;20055;-65
2022/08/15 14:28:30;;;;;;;5.10;2.10;;;;;;;;;;5075356;28;20028;-66
2022/08/15 14:30:58;;;;;;;4.20;1.88;;;;;;;;;;5067960;28;20024;-65
2022/08/15 14:33:26;;;;;;;4.20;1.90;;;;;;;;;;5057069;28;20496;-65
2022/08/15 14:35:56;;;;;;;4.32;2.10;;;;;;;;;;5068446;28;20671;-65
2022/08/15 14:38:22;;;;;;;3.90;2.17;;;;;;;;;;5074409;28;20024;-65
2022/08/15 14:40:47;;;;;;;4.97;2.10;;;;;;;;;;5072280;28;20112;-65
2022/08/15 14:43:14;;;;;;;5.97;2.47;;;;;;;;;;5071148;28;20381;-65
2022/08/15 14:45:40;;;;;;;7.75;2.65;;;;;;;;;;5066312;28;20021;-65
2022/08/15 14:48:11;;;;;;;4.57;2.33;;;;;;;;;;5052871;28;20040;-65
2022/08/15 14:50:37;;;;;;;6.40;2.50;;;;;;;;;;5060713;28;20469;-65
2022/08/15 14:53:04;;;;;;;5.18;2.50;;;;;;;;;;5051586;28;20047;-65
2022/08/15 14:55:31;;;;;;;4.50;2.50;;;;;;;;;;5060439;28;20131;-65